SLCU weather

Culpina Airport
Sud Cinti, Chuquisaca Department, Bolivia

Public forecast

Using degrees Celsius for public forecast. Weather courtesy of forecast.io.

Closest aviation weather report (METAR) to Culpina Airport

Report is more than 6 hours old.

Closest report is Capitan Oriel Lea Plaza Airport, 45.8 nm (84.9 km) SSE. Retrieved 2020/08/03 19:00 UTC (7 hours ago):

SLTJ 031900Z 16008KT 9999 NSC 26/05 Q1022

Closest aviation forecast (TAF) to Culpina Airport

Closest forecast is Capitan Oriel Lea Plaza Airport, 45.8 nm (84.9 km) SSE. Retrieved 2020-08-04 00:05 UTC (2 hours ago):

TAF SLTJ 032305Z 0400/0424 00000KT 9999 NSC TX30/0419Z TN08/0411Z BECMG 0414/0416 12010KT FEW030